Time;durP1;ratioP1;P1;durP2;ratioP2;P2;SDS_P1;SDS_P2;PMS_P1;PMS_P2;Temp;Humidity;BMP_temperature;BMP_pressure;BME280_temperature;BME280_humidity;BME280_pressure;Samples;Min_cycle;Max_cycle;Signal;HPM_P1;HPM_P2
2023/12/20 00:01:03;;;;;;;8.70;8.60;;;7.70;99.90;;;;;;5062371;28;20832;-72
2023/12/20 00:03:30;;;;;;;8.60;8.50;;;7.70;99.90;;;;;;5064286;28;20763;-73
2023/12/20 00:05:58;;;;;;;9.13;9.03;;;7.60;99.90;;;;;;5063411;28;20520;-72
2023/12/20 00:08:24;;;;;;;9.10;9.00;;;7.60;99.90;;;;;;5064041;28;20881;-72
2023/12/20 00:10:51;;;;;;;8.43;8.33;;;7.60;99.90;;;;;;5069712;28;20844;-73
2023/12/20 00:13:18;;;;;;;8.80;8.70;;;7.50;99.90;;;;;;5059627;28;20456;-73
2023/12/20 00:15:45;;;;;;;8.90;8.80;;;7.40;99.90;;;;;;5069536;28;20448;-72
2023/12/20 00:18:13;;;;;;;8.60;8.50;;;7.40;99.90;;;;;;5062821;28;20470;-71
2023/12/20 00:20:41;;;;;;;8.97;8.87;;;7.40;99.90;;;;;;5064665;28;20467;-73
2023/12/20 00:23:08;;;;;;;9.10;9.00;;;7.30;99.90;;;;;;5061015;28;20464;-73
2023/12/20 00:25:35;;;;;;;8.90;8.80;;;7.30;99.90;;;;;;5068999;28;20516;-72
2023/12/20 00:28:02;;;;;;;8.80;8.70;;;7.30;99.90;;;;;;5068064;28;20464;-74
2023/12/20 00:30:30;;;;;;;9.60;9.40;;;7.30;99.90;;;;;;5064855;28;20477;-75
2023/12/20 00:32:57;;;;;;;9.70;9.50;;;7.30;99.90;;;;;;5068150;28;20879;-71
2023/12/20 00:35:25;;;;;;;10.07;9.87;;;7.30;99.90;;;;;;5063373;28;20464;-72
2023/12/20 00:37:52;;;;;;;10.40;10.20;;;7.40;99.90;;;;;;5068447;28;20482;-74
2023/12/20 00:40:18;;;;;;;10.50;10.30;;;7.40;99.90;;;;;;5062050;28;20455;-72
2023/12/20 00:42:47;;;;;;;10.20;10.00;;;7.40;99.90;;;;;;5063713;28;20460;-72
2023/12/20 00:45:15;;;;;;;9.60;9.40;;;7.40;99.90;;;;;;5060398;28;20464;-72
2023/12/20 00:47:42;;;;;;;9.40;9.20;;;7.30;99.90;;;;;;5066269;28;20950;-75
2023/12/20 00:50:09;;;;;;;10.00;9.80;;;7.20;99.90;;;;;;5063700;28;20458;-74
2023/12/20 00:52:38;;;;;;;9.30;9.10;;;7.30;99.90;;;;;;5065140;28;20573;-72
2023/12/20 00:55:06;;;;;;;9.43;9.23;;;7.20;99.90;;;;;;5069209;28;20451;-74
2023/12/20 00:57:33;;;;;;;9.90;9.70;;;7.10;99.90;;;;;;5055235;28;20447;-74
2023/12/20 01:00:00;;;;;;;9.90;9.70;;;7.10;99.90;;;;;;5064363;28;20806;-72
2023/12/20 01:02:27;;;;;;;9.13;8.93;;;7.10;99.90;;;;;;5063506;28;21018;-72
2023/12/20 01:04:54;;;;;;;9.53;9.33;;;7.00;99.90;;;;;;5068805;28;20458;-74
2023/12/20 01:07:22;;;;;;;9.10;8.90;;;7.00;99.90;;;;;;5066379;28;20456;-74
2023/12/20 01:09:50;;;;;;;9.57;9.37;;;7.00;99.90;;;;;;5064162;28;20605;-74
2023/12/20 01:12:17;;;;;;;10.37;10.17;;;6.90;99.90;;;;;;5061966;28;20495;-72
2023/12/20 01:14:45;;;;;;;9.80;9.60;;;6.90;99.90;;;;;;5063643;28;20967;-73
2023/12/20 01:17:12;;;;;;;9.83;9.63;;;6.80;99.90;;;;;;5062017;28;20474;-72
2023/12/20 01:19:39;;;;;;;10.13;9.93;;;6.70;99.90;;;;;;5070129;28;20795;-74
2023/12/20 01:22:07;;;;;;;10.40;10.20;;;6.70;99.90;;;;;;5066290;28;20477;-75
2023/12/20 01:24:34;;;;;;;10.50;10.30;;;6.60;99.90;;;;;;5056601;28;20487;-73
2023/12/20 01:27:02;;;;;;;10.30;10.10;;;6.50;99.90;;;;;;5063374;28;20471;-73
2023/12/20 01:29:29;;;;;;;10.40;10.20;;;6.40;99.90;;;;;;5060713;28;20814;-74
2023/12/20 01:31:55;;;;;;;10.77;10.47;;;6.20;99.90;;;;;;5062489;28;20494;-72
2023/12/20 01:34:22;;;;;;;10.37;10.17;;;6.30;99.90;;;;;;5063532;28;20459;-73
2023/12/20 01:36:51;;;;;;;10.57;10.33;;;6.30;99.90;;;;;;5062817;28;20460;-72
2023/12/20 01:39:18;;;;;;;11.10;10.80;;;6.20;99.90;;;;;;5056549;28;20973;-73
2023/12/20 01:41:45;;;;;;;10.23;10.03;;;6.10;99.90;;;;;;5068807;28;20473;-74
2023/12/20 01:44:14;;;;;;;10.87;10.57;;;6.10;99.90;;;;;;5068055;28;20546;-72
2023/12/20 01:46:41;;;;;;;11.10;10.80;;;6.10;99.90;;;;;;5058805;28;20467;-72
2023/12/20 01:49:09;;;;;;;12.20;11.80;;;6.10;99.90;;;;;;5065894;28;20551;-71
2023/12/20 01:51:36;;;;;;;12.50;12.10;;;6.10;99.90;;;;;;5054006;28;20487;-74
2023/12/20 01:54:04;;;;;;;12.20;11.90;;;6.10;99.90;;;;;;5057542;28;20895;-74
2023/12/20 01:56:33;;;;;;;11.67;11.37;;;6.00;99.90;;;;;;5066031;28;20450;-72
2023/12/20 01:59:01;;;;;;;11.77;11.47;;;5.90;99.90;;;;;;5056823;28;20462;-72
2023/12/20 02:01:30;;;;;;;11.77;11.47;;;5.80;99.90;;;;;;5066529;28;20463;-71
2023/12/20 02:03:57;;;;;;;12.13;11.83;;;5.80;99.90;;;;;;5059548;28;20470;-72
2023/12/20 02:06:29;;;;;;;12.10;11.80;;;5.70;99.90;;;;;;5067333;28;20497;-73
2023/12/20 02:08:55;;;;;;;11.97;11.67;;;5.70;99.90;;;;;;5063484;28;20471;-74
2023/12/20 02:11:24;;;;;;;11.57;11.27;;;5.60;99.90;;;;;;5069860;28;20471;-73
2023/12/20 02:13:52;;;;;;;12.00;11.70;;;5.60;99.90;;;;;;5066767;28;20693;-72
2023/12/20 02:16:19;;;;;;;11.67;11.37;;;5.60;99.90;;;;;;5066167;28;20451;-73
2023/12/20 02:18:47;;;;;;;12.00;11.70;;;5.60;99.90;;;;;;5058962;28;20489;-72
2023/12/20 02:21:14;;;;;;;11.80;11.50;;;5.70;99.90;;;;;;5057864;28;20473;-74
2023/12/20 02:23:41;;;;;;;11.77;11.47;;;5.70;99.90;;;;;;5066235;28;20530;-73
2023/12/20 02:26:08;;;;;;;11.53;11.23;;;5.70;99.90;;;;;;5059326;28;20491;-71
2023/12/20 02:28:37;;;;;;;11.57;11.27;;;5.80;99.90;;;;;;5063112;28;20532;-73
2023/12/20 02:31:04;;;;;;;11.70;11.40;;;5.80;99.90;;;;;;5057386;28;20459;-71
2023/12/20 02:33:31;;;;;;;11.20;10.90;;;5.90;99.90;;;;;;5053178;28;20452;-73
2023/12/20 02:35:58;;;;;;;11.07;10.77;;;5.90;99.90;;;;;;5054549;28;20463;-71
2023/12/20 02:38:24;;;;;;;11.33;11.03;;;5.90;99.90;;;;;;5057115;28;20565;-71
2023/12/20 02:40:53;;;;;;;11.33;11.03;;;6.00;99.90;;;;;;5064054;28;20504;-71
2023/12/20 02:43:19;;;;;;;11.00;10.70;;;6.00;99.90;;;;;;5066263;28;20482;-74
2023/12/20 02:45:46;;;;;;;10.87;10.63;;;6.00;99.90;;;;;;5055102;28;20460;-71
2023/12/20 02:48:13;;;;;;;11.50;11.20;;;6.00;99.90;;;;;;5064363;28;20459;-73
2023/12/20 02:50:40;;;;;;;10.27;10.07;;;6.00;99.90;;;;;;5050463;28;20466;-73
2023/12/20 02:53:07;;;;;;;11.20;10.90;;;6.00;99.90;;;;;;5063069;28;20551;-73
2023/12/20 02:55:33;;;;;;;11.00;10.70;;;5.90;99.90;;;;;;5067293;28;20864;-71
2023/12/20 02:58:01;;;;;;;11.03;10.73;;;5.90;99.90;;;;;;5060049;28;20868;-71
2023/12/20 03:00:28;;;;;;;11.50;11.20;;;5.80;99.90;;;;;;5069904;28;20855;-71
2023/12/20 03:02:55;;;;;;;11.27;10.97;;;5.70;99.90;;;;;;5064485;28;20942;-72
2023/12/20 03:05:22;;;;;;;11.50;11.20;;;5.70;99.90;;;;;;5059395;28;20457;-72
2023/12/20 03:07:49;;;;;;;10.80;10.60;;;5.60;99.90;;;;;;5062904;28;20456;-72
2023/12/20 03:10:15;;;;;;;11.20;10.90;;;5.60;99.90;;;;;;5061411;28;20815;-69
2023/12/20 03:12:42;;;;;;;10.37;10.17;;;5.60;99.90;;;;;;5066781;28;20483;-72
2023/12/20 03:15:11;;;;;;;10.63;10.43;;;5.60;99.90;;;;;;5064812;28;21036;-70
2023/12/20 03:17:38;;;;;;;11.10;10.80;;;5.70;99.90;;;;;;5062457;28;20514;-71
2023/12/20 03:20:05;;;;;;;11.20;10.90;;;5.70;99.90;;;;;;5062886;28;20467;-71
2023/12/20 03:22:32;;;;;;;10.80;10.60;;;5.80;99.90;;;;;;5057776;28;20589;-72
2023/12/20 03:25:00;;;;;;;11.23;10.93;;;5.80;99.90;;;;;;5055940;28;21095;-72
2023/12/20 03:27:26;;;;;;;11.70;11.40;;;5.80;99.90;;;;;;5063822;28;20503;-71
2023/12/20 03:29:53;;;;;;;11.33;11.03;;;5.80;99.90;;;;;;5063014;28;20865;-71
2023/12/20 03:32:22;;;;;;;12.10;11.80;;;5.80;99.90;;;;;;5062201;28;20577;-71
2023/12/20 03:34:49;;;;;;;11.90;11.60;;;5.90;99.90;;;;;;5062490;28;21058;-72
2023/12/20 03:37:16;;;;;;;11.67;11.37;;;5.80;99.90;;;;;;5062479;28;20461;-72
2023/12/20 03:39:43;;;;;;;11.20;10.90;;;5.80;99.90;;;;;;5056833;28;20464;-72
2023/12/20 03:42:10;;;;;;;11.40;11.10;;;5.80;99.90;;;;;;5063176;28;20466;-72
2023/12/20 03:44:40;;;;;;;11.10;10.80;;;5.80;99.90;;;;;;5060551;28;20467;-70
2023/12/20 03:47:08;;;;;;;10.40;10.20;;;5.80;99.90;;;;;;5066590;28;20443;-71
2023/12/20 03:49:38;;;;;;;10.67;10.47;;;5.70;99.90;;;;;;5052928;28;20877;-72
2023/12/20 03:52:06;;;;;;;10.80;10.60;;;5.70;99.90;;;;;;5060013;28;20513;-71
2023/12/20 03:54:34;;;;;;;11.20;10.90;;;5.70;99.90;;;;;;5062426;28;20456;-70
2023/12/20 03:57:01;;;;;;;11.30;11.00;;;5.60;99.90;;;;;;5062343;28;20451;-72
2023/12/20 03:59:28;;;;;;;10.73;10.53;;;5.60;99.90;;;;;;5059762;28;20455;-70
2023/12/20 04:01:56;;;;;;;10.80;10.60;;;5.60;99.90;;;;;;5065726;28;20805;-70
2023/12/20 04:04:23;;;;;;;10.90;10.70;;;5.60;99.90;;;;;;5062891;28;20466;-70
2023/12/20 04:06:51;;;;;;;10.10;9.90;;;5.70;99.90;;;;;;5066796;28;20458;-71
2023/12/20 04:09:19;;;;;;;10.60;10.40;;;5.70;99.90;;;;;;5069420;28;20458;-70
2023/12/20 04:11:46;;;;;;;10.57;10.37;;;5.80;99.90;;;;;;5062085;28;20467;-73
2023/12/20 04:14:13;;;;;;;10.30;10.10;;;5.70;99.90;;;;;;5063927;28;20802;-70
2023/12/20 04:16:40;;;;;;;10.07;9.87;;;5.70;99.90;;;;;;5063937;28;20515;-73
2023/12/20 04:19:07;;;;;;;9.40;9.20;;;5.60;99.90;;;;;;5063779;28;20447;-72
2023/12/20 04:21:33;;;;;;;10.10;9.90;;;5.60;99.90;;;;;;5061152;28;20547;-71
2023/12/20 04:24:02;;;;;;;9.60;9.40;;;5.50;99.90;;;;;;5064249;28;20490;-71
2023/12/20 04:26:29;;;;;;;9.43;9.23;;;5.50;99.90;;;;;;5069310;28;20463;-72
2023/12/20 04:28:56;;;;;;;9.43;9.23;;;5.40;99.90;;;;;;5063762;28;20491;-72
2023/12/20 04:31:23;;;;;;;9.10;8.90;;;5.40;99.90;;;;;;5063622;28;20509;-71
2023/12/20 04:33:50;;;;;;;9.40;9.20;;;5.50;99.90;;;;;;5057736;28;20490;-70
2023/12/20 04:36:17;;;;;;;8.93;8.77;;;5.50;99.90;;;;;;5063567;28;21060;-71
2023/12/20 04:38:44;;;;;;;8.73;8.63;;;5.50;99.90;;;;;;5065119;28;20463;-71
2023/12/20 04:41:15;;;;;;;8.23;8.13;;;5.40;99.90;;;;;;5066770;28;20509;-70
2023/12/20 04:43:43;;;;;;;8.80;8.70;;;5.40;99.90;;;;;;5064347;28;20956;-71
2023/12/20 04:46:09;;;;;;;8.20;8.10;;;5.40;99.90;;;;;;5069065;28;20812;-71
2023/12/20 04:48:36;;;;;;;7.50;7.40;;;5.40;99.90;;;;;;5057374;28;20454;-72
2023/12/20 04:51:04;;;;;;;7.13;7.03;;;5.40;99.90;;;;;;5061899;28;20521;-73
2023/12/20 04:53:31;;;;;;;6.97;6.87;;;5.40;99.90;;;;;;5069214;28;20528;-70
2023/12/20 04:55:58;;;;;;;6.90;6.80;;;5.40;99.90;;;;;;5064206;28;20468;-71
2023/12/20 04:58:26;;;;;;;7.20;7.10;;;5.40;99.90;;;;;;5063281;28;20943;-69
2023/12/20 05:00:53;;;;;;;7.30;7.20;;;5.40;99.90;;;;;;5055303;28;20447;-72
2023/12/20 05:03:20;;;;;;;7.10;7.00;;;5.40;99.90;;;;;;5059051;28;20917;-70
2023/12/20 05:05:48;;;;;;;6.50;6.40;;;5.40;99.90;;;;;;5065867;28;20551;-71
2023/12/20 05:08:15;;;;;;;7.00;6.90;;;5.40;99.90;;;;;;5063493;28;20708;-71
2023/12/20 05:10:43;;;;;;;7.67;7.57;;;5.50;99.90;;;;;;5068638;28;20481;-71
2023/12/20 05:13:10;;;;;;;7.90;7.80;;;5.50;99.90;;;;;;5061652;28;20479;-70
2023/12/20 05:15:39;;;;;;;7.70;7.60;;;5.50;99.90;;;;;;5064533;28;20460;-70
2023/12/20 05:18:06;;;;;;;7.83;7.73;;;5.50;99.90;;;;;;5065512;28;20458;-70
2023/12/20 05:20:33;;;;;;;7.77;7.67;;;5.60;99.90;;;;;;5056116;28;20460;-72
2023/12/20 05:23:00;;;;;;;7.27;7.17;;;5.60;99.90;;;;;;5065537;28;20454;-72
2023/12/20 05:25:27;;;;;;;8.30;8.20;;;5.70;99.90;;;;;;5067977;28;20465;-71
2023/12/20 05:27:55;;;;;;;7.13;7.03;;;5.70;99.90;;;;;;5064417;28;20779;-70
2023/12/20 05:30:22;;;;;;;7.57;7.47;;;5.70;99.90;;;;;;5064693;28;20462;-72
2023/12/20 05:32:51;;;;;;;7.00;6.90;;;5.80;99.90;;;;;;5059410;28;20502;-70
2023/12/20 05:35:19;;;;;;;7.43;7.33;;;5.80;99.90;;;;;;5063250;28;20458;-70
2023/12/20 05:37:45;;;;;;;7.00;6.90;;;5.80;99.90;;;;;;5057745;28;20455;-70
2023/12/20 05:40:12;;;;;;;7.47;7.37;;;5.90;99.90;;;;;;5059607;28;20462;-71
2023/12/20 05:42:40;;;;;;;7.83;7.73;;;5.90;99.90;;;;;;5067016;28;20461;-70
2023/12/20 05:45:07;;;;;;;7.37;7.27;;;5.90;99.90;;;;;;5064486;28;20894;-70
2023/12/20 05:47:35;;;;;;;7.20;7.10;;;5.90;99.90;;;;;;5066407;28;20456;-72
2023/12/20 05:50:04;;;;;;;6.90;6.80;;;5.90;99.90;;;;;;5066291;28;20459;-71
2023/12/20 05:52:31;;;;;;;7.10;7.00;;;5.90;99.90;;;;;;5060645;28;20479;-70
2023/12/20 05:55:01;;;;;;;7.00;6.90;;;6.00;99.90;;;;;;5064642;28;20452;-70
2023/12/20 05:57:27;;;;;;;7.37;7.27;;;5.90;99.90;;;;;;5050663;28;20467;-71
2023/12/20 05:59:54;;;;;;;6.93;6.83;;;6.00;99.90;;;;;;5067922;28;20466;-70
2023/12/20 06:02:22;;;;;;;6.90;6.80;;;6.00;99.90;;;;;;5064908;28;20460;-70
2023/12/20 06:04:49;;;;;;;6.63;6.53;;;6.00;99.90;;;;;;5059715;28;20507;-71
2023/12/20 06:07:18;;;;;;;6.80;6.70;;;6.00;99.90;;;;;;5060766;28;20505;-71
2023/12/20 06:09:45;;;;;;;6.80;6.70;;;6.10;99.90;;;;;;5067110;28;20576;-71
2023/12/20 06:12:12;;;;;;;6.80;6.70;;;6.00;99.90;;;;;;5065129;28;20463;-70
2023/12/20 06:14:39;;;;;;;7.20;7.10;;;6.10;99.90;;;;;;5057983;28;21027;-71
2023/12/20 06:17:06;;;;;;;7.13;7.03;;;6.10;99.90;;;;;;5067196;28;20808;-70
2023/12/20 06:19:32;;;;;;;7.37;7.27;;;6.20;99.90;;;;;;5061805;28;20461;-71
2023/12/20 06:21:59;;;;;;;7.37;7.27;;;6.20;99.90;;;;;;5057318;28;20460;-70
2023/12/20 06:24:28;;;;;;;7.20;7.10;;;6.20;99.90;;;;;;5065155;28;20483;-72
2023/12/20 06:26:55;;;;;;;6.93;6.83;;;6.20;99.90;;;;;;5066646;28;20462;-71
2023/12/20 06:29:23;;;;;;;7.30;7.20;;;6.20;99.90;;;;;;5063025;28;20498;-72
2023/12/20 06:31:50;;;;;;;7.40;7.30;;;6.20;99.90;;;;;;5059633;28;20856;-70
2023/12/20 06:34:16;;;;;;;7.47;7.37;;;6.20;99.90;;;;;;5061358;28;20494;-71
2023/12/20 06:36:43;;;;;;;7.40;7.30;;;6.20;99.90;;;;;;5061220;28;20976;-72
2023/12/20 06:39:12;;;;;;;7.30;7.20;;;6.20;99.90;;;;;;5066927;28;20466;-70
2023/12/20 06:41:42;;;;;;;7.27;7.17;;;6.30;99.90;;;;;;5066987;28;20953;-73
2023/12/20 06:44:09;;;;;;;7.50;7.40;;;6.30;99.90;;;;;;5061310;28;21071;-73
2023/12/20 06:46:36;;;;;;;8.10;8.00;;;6.30;99.90;;;;;;5065721;28;20453;-72
2023/12/20 06:49:03;;;;;;;7.63;7.53;;;6.30;99.90;;;;;;5061015;28;20468;-73
2023/12/20 06:51:30;;;;;;;7.93;7.83;;;6.30;99.90;;;;;;5063877;28;20462;-71
2023/12/20 06:53:59;;;;;;;7.90;7.80;;;6.30;99.90;;;;;;5059135;28;20486;-73
2023/12/20 06:56:26;;;;;;;7.70;7.60;;;6.30;99.90;;;;;;5060238;28;20460;-72
2023/12/20 06:58:54;;;;;;;7.40;7.30;;;6.30;99.90;;;;;;5065108;28;20883;-73
2023/12/20 07:01:22;;;;;;;7.53;7.43;;;6.30;99.90;;;;;;5063319;28;20496;-72
2023/12/20 07:03:49;;;;;;;7.53;7.43;;;6.30;99.90;;;;;;5058187;28;20455;-71
2023/12/20 07:06:16;;;;;;;7.87;7.77;;;6.30;99.90;;;;;;5061151;28;20765;-71
2023/12/20 07:08:43;;;;;;;8.00;7.90;;;6.30;99.90;;;;;;5063675;28;20800;-71
2023/12/20 07:11:10;;;;;;;7.80;7.70;;;6.30;99.90;;;;;;5061486;28;20809;-73
2023/12/20 07:13:37;;;;;;;7.97;7.87;;;6.30;99.90;;;;;;5059797;28;20485;-72
2023/12/20 07:16:05;;;;;;;7.63;7.53;;;6.30;99.90;;;;;;5062412;28;21009;-72
2023/12/20 07:18:32;;;;;;;7.90;7.80;;;6.30;99.90;;;;;;5062523;28;20483;-72
2023/12/20 07:21:00;;;;;;;7.73;7.63;;;6.30;99.90;;;;;;5063058;28;20703;-70
2023/12/20 07:23:26;;;;;;;7.63;7.53;;;6.30;99.90;;;;;;5066258;28;20475;-71
2023/12/20 07:25:53;;;;;;;7.70;7.60;;;6.30;99.90;;;;;;5051327;28;20456;-71
2023/12/20 07:28:20;;;;;;;6.93;6.83;;;6.20;99.90;;;;;;5064234;28;20467;-73
2023/12/20 07:30:47;;;;;;;7.50;7.40;;;6.20;99.90;;;;;;5074402;28;20447;-70
2023/12/20 07:33:15;;;;;;;7.13;7.03;;;6.20;99.90;;;;;;5056247;28;20498;-73
2023/12/20 07:35:45;;;;;;;7.27;7.17;;;6.20;99.90;;;;;;5069530;28;20451;-73
2023/12/20 07:38:12;;;;;;;8.10;8.00;;;6.20;99.90;;;;;;5070502;28;20451;-72
2023/12/20 07:40:39;;;;;;;7.60;7.50;;;6.20;99.90;;;;;;5061150;28;20586;-71
2023/12/20 07:43:06;;;;;;;8.23;8.13;;;6.20;99.90;;;;;;5060023;28;20550;-72
2023/12/20 07:45:33;;;;;;;8.00;7.90;;;6.10;99.90;;;;;;5070020;28;20443;-72
2023/12/20 07:48:00;;;;;;;7.90;7.80;;;6.00;99.90;;;;;;5070127;28;20466;-72
2023/12/20 07:50:28;;;;;;;7.57;7.47;;;6.00;99.90;;;;;;5064085;28;20938;-70
2023/12/20 07:52:55;;;;;;;7.60;7.50;;;6.00;99.90;;;;;;5063055;28;20954;-72
2023/12/20 07:55:22;;;;;;;7.40;7.30;;;5.90;99.90;;;;;;5057647;28;20899;-70
2023/12/20 07:57:49;;;;;;;7.50;7.40;;;5.80;99.90;;;;;;5061275;28;20467;-72
2023/12/20 08:00:17;;;;;;;7.50;7.40;;;5.80;99.90;;;;;;5061206;28;20455;-70
2023/12/20 08:02:44;;;;;;;7.13;7.03;;;5.80;99.90;;;;;;5065456;28;20534;-73
2023/12/20 08:05:11;;;;;;;7.40;7.30;;;5.70;99.90;;;;;;5059979;28;20459;-71
2023/12/20 08:07:40;;;;;;;7.03;6.93;;;5.70;99.90;;;;;;5065092;28;20855;-72
2023/12/20 08:10:08;;;;;;;7.40;7.30;;;5.70;99.90;;;;;;5065849;28;20467;-70
2023/12/20 08:12:35;;;;;;;6.50;6.40;;;5.80;99.90;;;;;;5064869;28;20534;-72
2023/12/20 08:15:04;;;;;;;7.23;7.13;;;5.80;99.90;;;;;;5056185;28;20995;-73
2023/12/20 08:17:30;;;;;;;7.70;7.60;;;5.90;99.90;;;;;;5061913;28;20451;-72
2023/12/20 08:19:57;;;;;;;8.23;8.13;;;5.90;99.90;;;;;;5060745;28;20486;-72
2023/12/20 08:22:24;;;;;;;7.83;7.73;;;5.90;99.90;;;;;;5063995;28;20785;-72
2023/12/20 08:24:53;;;;;;;7.80;7.70;;;5.90;99.90;;;;;;5063290;28;20479;-71
2023/12/20 08:27:21;;;;;;;7.47;7.37;;;5.80;99.90;;;;;;5070026;28;20808;-72
2023/12/20 08:29:49;;;;;;;7.40;7.30;;;5.70;99.90;;;;;;5064818;28;20808;-73
2023/12/20 08:32:16;;;;;;;7.10;7.00;;;5.70;99.90;;;;;;5067281;28;20482;-72
2023/12/20 08:34:43;;;;;;;7.10;7.00;;;5.70;99.90;;;;;;5068546;28;20564;-71
2023/12/20 08:37:10;;;;;;;6.63;6.53;;;5.80;99.90;;;;;;5067128;28;20912;-73
2023/12/20 08:39:37;;;;;;;7.30;7.20;;;5.90;99.90;;;;;;5065393;28;20466;-73
2023/12/20 08:42:05;;;;;;;7.37;7.27;;;6.00;99.90;;;;;;5055176;28;20452;-72
2023/12/20 08:44:32;;;;;;;7.53;7.43;;;6.00;99.90;;;;;;5058573;28;20463;-71
2023/12/20 08:46:59;;;;;;;8.30;8.20;;;6.10;99.90;;;;;;5057472;28;20867;-72
2023/12/20 08:49:26;;;;;;;8.60;8.50;;;6.20;99.90;;;;;;5056065;28;20867;-71
2023/12/20 08:51:52;;;;;;;8.60;8.50;;;6.30;99.90;;;;;;5056076;28;20884;-72
2023/12/20 08:54:20;;;;;;;8.13;8.03;;;6.30;99.90;;;;;;5056172;28;20498;-71
2023/12/20 08:56:47;;;;;;;8.47;8.37;;;6.30;99.90;;;;;;5057541;28;20543;-71
2023/12/20 08:59:15;;;;;;;8.90;8.70;;;6.40;99.90;;;;;;5056459;28;20459;-72
2023/12/20 09:01:42;;;;;;;8.93;8.73;;;6.40;99.90;;;;;;5057915;28;20464;-72
2023/12/20 09:04:10;;;;;;;8.97;8.77;;;6.50;99.90;;;;;;5057472;28;20499;-70
2023/12/20 09:06:37;;;;;;;8.93;8.73;;;6.40;99.90;;;;;;5056472;28;20478;-72
2023/12/20 09:09:08;;;;;;;9.37;9.17;;;6.50;99.90;;;;;;5054721;28;20466;-71
2023/12/20 09:11:35;;;;;;;9.50;9.30;;;6.50;99.90;;;;;;5058495;28;20478;-70
2023/12/20 09:14:03;;;;;;;9.33;9.13;;;6.50;99.90;;;;;;5053316;28;20495;-71
2023/12/20 09:16:32;;;;;;;9.73;9.53;;;6.40;99.90;;;;;;5056581;28;20518;-71
2023/12/20 09:18:59;;;;;;;9.87;9.67;;;6.50;99.90;;;;;;5057088;28;20467;-71
2023/12/20 09:21:25;;;;;;;9.50;9.30;;;6.50;99.90;;;;;;5056031;28;20464;-70
2023/12/20 09:23:52;;;;;;;9.20;9.00;;;6.50;99.90;;;;;;5059203;28;20487;-71
2023/12/20 09:26:19;;;;;;;9.23;9.03;;;6.50;99.90;;;;;;5054919;28;20455;-71
2023/12/20 09:28:46;;;;;;;9.70;9.50;;;6.50;99.90;;;;;;5054088;28;20454;-72
2023/12/20 09:31:13;;;;;;;9.80;9.60;;;6.50;99.90;;;;;;5058126;28;21043;-71
2023/12/20 09:33:41;;;;;;;9.83;9.63;;;6.60;99.90;;;;;;5056731;28;20506;-69
2023/12/20 09:36:08;;;;;;;10.17;9.97;;;6.50;99.90;;;;;;5053555;28;20630;-70
2023/12/20 09:38:35;;;;;;;9.83;9.63;;;6.60;99.90;;;;;;5053209;28;20969;-72
2023/12/20 09:41:04;;;;;;;9.97;9.77;;;6.60;99.90;;;;;;5060161;28;21088;-70
2023/12/20 09:43:31;;;;;;;10.00;9.80;;;6.60;99.90;;;;;;5057388;28;20460;-72
2023/12/20 09:46:03;;;;;;;10.60;10.30;;;6.60;99.90;;;;;;5056201;28;20467;-71
2023/12/20 09:48:30;;;;;;;10.27;10.07;;;6.60;99.90;;;;;;5058770;28;20467;-71
2023/12/20 09:50:58;;;;;;;10.30;10.10;;;6.70;99.90;;;;;;5058583;28;20467;-71
2023/12/20 09:53:29;;;;;;;10.37;10.13;;;6.80;99.90;;;;;;5054082;28;20471;-72
2023/12/20 09:55:58;;;;;;;10.30;10.10;;;7.00;99.90;;;;;;5054124;28;20459;-73
2023/12/20 09:58:25;;;;;;;11.07;10.77;;;7.00;99.90;;;;;;5055414;28;20463;-72
2023/12/20 10:00:52;;;;;;;11.07;10.77;;;7.00;99.90;;;;;;5059010;28;20463;-71
2023/12/20 10:03:25;;;;;;;11.40;11.10;;;7.00;99.90;;;;;;5057891;28;20459;-70
2023/12/20 10:05:55;;;;;;;10.90;10.60;;;7.00;99.90;;;;;;5054459;28;20549;-70
2023/12/20 10:08:25;;;;;;;10.60;10.30;;;7.00;99.90;;;;;;5057687;28;21296;-71
2023/12/20 10:10:51;;;;;;;10.73;10.43;;;7.10;99.90;;;;;;5057650;28;20452;-70
2023/12/20 10:13:18;;;;;;;9.97;9.77;;;7.00;99.90;;;;;;5058356;28;20459;-71
2023/12/20 10:15:45;;;;;;;11.03;10.73;;;7.00;99.90;;;;;;5052255;28;20498;-71
2023/12/20 10:18:14;;;;;;;10.70;10.40;;;7.10;99.90;;;;;;5055704;28;20894;-71
2023/12/20 10:20:41;;;;;;;10.83;10.53;;;7.10;99.90;;;;;;5052727;28;21099;-71
2023/12/20 10:23:09;;;;;;;10.90;10.60;;;7.10;99.90;;;;;;5058389;28;20502;-70
2023/12/20 10:25:37;;;;;;;11.07;10.77;;;7.10;99.90;;;;;;5056085;28;20951;-70
2023/12/20 10:28:11;;;;;;;10.87;10.57;;;7.00;99.90;;;;;;5053288;28;20459;-70
2023/12/20 10:30:56;;;;;;;10.27;10.07;;;7.00;99.90;;;;;;5071176;27;21075;-71
2023/12/20 10:33:26;;;;;;;10.20;10.00;;;7.00;99.90;;;;;;5049488;28;20507;-70
2023/12/20 10:35:53;;;;;;;10.70;10.40;;;6.90;99.90;;;;;;5046321;28;20554;-70
2023/12/20 10:38:20;;;;;;;10.77;10.47;;;6.90;99.90;;;;;;5051346;28;21013;-70
2023/12/20 10:40:47;;;;;;;10.87;10.57;;;7.00;99.90;;;;;;5044250;28;20471;-71
2023/12/20 10:43:15;;;;;;;10.90;10.60;;;7.00;99.90;;;;;;5053529;28;20456;-70
2023/12/20 10:45:43;;;;;;;10.73;10.43;;;7.10;99.90;;;;;;5049708;28;20482;-70
2023/12/20 10:48:12;;;;;;;10.70;10.40;;;7.10;99.90;;;;;;5049545;28;20550;-70
2023/12/20 10:50:39;;;;;;;10.80;10.50;;;7.10;99.90;;;;;;5042014;28;20494;-71
2023/12/20 10:53:07;;;;;;;10.57;10.27;;;7.00;99.90;;;;;;5047653;28;20498;-70
2023/12/20 10:55:34;;;;;;;10.87;10.57;;;7.10;99.90;;;;;;5049278;28;20459;-69
2023/12/20 10:58:03;;;;;;;10.60;10.30;;;7.10;99.90;;;;;;5051346;28;20496;-70
2023/12/20 11:00:31;;;;;;;11.00;10.70;;;7.00;99.90;;;;;;5049209;28;20499;-70
2023/12/20 11:03:02;;;;;;;11.00;10.70;;;7.20;99.90;;;;;;5047599;28;20451;-70
2023/12/20 11:05:38;;;;;;;10.93;10.63;;;7.20;99.90;;;;;;5045764;28;20460;-70
2023/12/20 11:08:11;;;;;;;10.63;10.33;;;7.20;99.90;;;;;;5051839;28;20454;-69
2023/12/20 11:10:44;;;;;;;10.97;10.67;;;7.20;99.90;;;;;;5048999;28;20573;-70
2023/12/20 11:13:18;;;;;;;11.20;10.90;;;7.20;99.90;;;;;;5045972;28;20495;-71
2023/12/20 11:15:46;;;;;;;10.73;10.43;;;7.30;99.90;;;;;;5049248;28;20452;-71
2023/12/20 11:18:12;;;;;;;11.03;10.73;;;7.30;99.90;;;;;;5050829;28;20967;-69
2023/12/20 11:20:42;;;;;;;11.30;11.00;;;7.30;99.90;;;;;;5042155;28;20503;-70
2023/12/20 11:23:10;;;;;;;11.30;11.00;;;7.20;99.90;;;;;;5049772;28;20481;-70
2023/12/20 11:25:48;;;;;;;11.10;10.80;;;7.20;99.90;;;;;;5046458;28;20470;-69
2023/12/20 11:28:17;;;;;;;10.93;10.63;;;7.20;99.90;;;;;;5049141;28;20828;-70
2023/12/20 11:30:47;;;;;;;10.60;10.30;;;7.10;99.90;;;;;;5051412;28;21041;-71
2023/12/20 11:33:15;;;;;;;10.87;10.57;;;7.10;99.90;;;;;;5043595;28;20482;-72
2023/12/20 11:35:43;;;;;;;10.73;10.43;;;7.20;99.90;;;;;;5049364;28;20602;-70
2023/12/20 11:38:10;;;;;;;10.70;10.40;;;7.20;99.90;;;;;;5047810;28;20459;-72
2023/12/20 11:40:38;;;;;;;10.80;10.50;;;7.30;99.90;;;;;;5041867;28;20947;-72
2023/12/20 11:43:06;;;;;;;10.90;10.60;;;7.30;99.90;;;;;;5036209;28;20542;-71
2023/12/20 11:45:34;;;;;;;11.00;10.70;;;7.30;99.90;;;;;;5035008;28;20511;-70
2023/12/20 11:48:01;;;;;;;10.40;10.10;;;7.20;99.90;;;;;;5034892;28;20488;-70
2023/12/20 11:50:29;;;;;;;10.70;10.40;;;7.30;99.90;;;;;;5027961;28;20498;-73
2023/12/20 11:52:57;;;;;;;10.00;9.80;;;7.20;99.90;;;;;;5031154;28;20488;-71
2023/12/20 11:55:24;;;;;;;10.50;10.20;;;7.30;99.90;;;;;;5034641;28;20469;-71
2023/12/20 11:57:52;;;;;;;9.97;9.77;;;7.20;99.90;;;;;;5036353;28;20464;-70
2023/12/20 12:00:19;;;;;;;10.87;10.57;;;7.20;99.90;;;;;;5035232;28;20468;-70
2023/12/20 12:02:56;;;;;;;11.13;10.83;;;7.20;99.90;;;;;;5036764;28;20486;-71
2023/12/20 12:05:24;;;;;;;11.10;10.80;;;7.10;99.90;;;;;;5033698;28;20522;-70
2023/12/20 12:07:50;;;;;;;10.60;10.30;;;7.00;99.90;;;;;;5030033;28;21184;-71
2023/12/20 12:10:19;;;;;;;10.70;10.40;;;7.00;99.90;;;;;;5037851;28;20492;-70
2023/12/20 12:12:46;;;;;;;10.37;10.07;;;7.00;99.90;;;;;;5031808;28;20476;-69
2023/12/20 12:15:13;;;;;;;9.60;9.40;;;7.00;99.90;;;;;;5036275;28;20858;-71
2023/12/20 12:17:40;;;;;;;8.97;8.77;;;7.00;99.90;;;;;;5035411;28;20823;-71
2023/12/20 12:20:09;;;;;;;9.50;9.30;;;7.00;99.90;;;;;;5035490;28;20882;-70
2023/12/20 12:22:36;;;;;;;9.30;9.10;;;7.00;99.90;;;;;;5033616;28;20453;-70
2023/12/20 12:25:11;;;;;;;8.23;8.13;;;7.10;99.90;;;;;;5029901;28;20504;-69
2023/12/20 12:27:41;;;;;;;8.40;8.30;;;7.00;99.90;;;;;;5033959;28;20455;-71
2023/12/20 12:30:09;;;;;;;9.10;8.90;;;7.10;99.90;;;;;;5032181;28;20488;-71
2023/12/20 12:32:36;;;;;;;9.07;8.87;;;7.20;99.90;;;;;;5035520;28;20484;-71
2023/12/20 12:35:06;;;;;;;9.30;9.10;;;7.20;99.90;;;;;;5035214;28;20585;-71
2023/12/20 12:37:36;;;;;;;8.80;8.60;;;7.30;99.90;;;;;;5036482;28;20457;-72
2023/12/20 12:40:05;;;;;;;8.57;8.43;;;7.30;99.90;;;;;;5032468;28;20466;-70
2023/12/20 12:42:32;;;;;;;9.00;8.80;;;7.30;99.90;;;;;;5032173;28;20492;-70
2023/12/20 12:45:00;;;;;;;8.77;8.57;;;7.20;99.90;;;;;;5035118;28;20464;-70
2023/12/20 12:47:27;;;;;;;9.03;8.83;;;7.20;99.90;;;;;;5032900;28;20460;-72
2023/12/20 12:49:54;;;;;;;8.80;8.60;;;7.20;99.90;;;;;;5035216;28;20690;-71